createdAt,value
2017-04-14T00:00:06.823Z,1009.05
2017-04-14T00:01:06.798Z,1009.05
2017-04-14T00:02:06.779Z,1009.03
2017-04-14T00:03:06.754Z,1009.07
2017-04-14T00:04:06.738Z,1009.05
2017-04-14T00:05:06.712Z,1009.02
2017-04-14T00:06:06.690Z,1009.02
2017-04-14T00:07:06.671Z,1009.04
2017-04-14T00:08:06.655Z,1009.01
2017-04-14T00:09:06.632Z,1009
2017-04-14T00:10:06.607Z,1009
2017-04-14T00:11:06.582Z,1008.96
2017-04-14T00:12:06.565Z,1009.01
2017-04-14T00:13:06.537Z,1008.98
2017-04-14T00:14:06.513Z,1008.97
2017-04-14T00:15:06.492Z,1009.02
2017-04-14T00:16:06.473Z,1008.99
2017-04-14T00:17:06.451Z,1009
2017-04-14T00:18:06.425Z,1008.94
2017-04-14T00:19:06.413Z,1008.97
2017-04-14T00:20:06.393Z,1008.96
2017-04-14T00:21:06.360Z,1008.95
2017-04-14T00:22:06.343Z,1008.97
2017-04-14T00:23:06.318Z,1008.94
2017-04-14T00:24:06.296Z,1008.96
2017-04-14T00:25:06.283Z,1008.93
2017-04-14T00:26:06.254Z,1008.94
2017-04-14T00:27:06.232Z,1008.92
2017-04-14T00:28:06.213Z,1008.93
2017-04-14T00:29:06.188Z,1008.93
2017-04-14T00:30:06.166Z,1008.91
2017-04-14T00:31:06.142Z,1008.94
2017-04-14T00:32:06.123Z,1008.95
2017-04-14T00:33:06.100Z,1008.94
2017-04-14T00:34:06.076Z,1008.94
2017-04-14T00:35:06.055Z,1008.94
2017-04-14T00:36:06.029Z,1008.92
2017-04-14T00:37:06.013Z,1008.95
2017-04-14T00:38:05.989Z,1008.92
2017-04-14T00:39:05.966Z,1008.94
2017-04-14T00:40:05.942Z,1008.96
2017-04-14T00:41:05.927Z,1008.95
2017-04-14T00:42:05.902Z,1008.95
2017-04-14T00:43:05.879Z,1008.94
2017-04-14T00:44:05.859Z,1008.96
2017-04-14T00:45:05.838Z,1008.94
2017-04-14T00:46:05.811Z,1008.92
2017-04-14T00:47:05.792Z,1008.96
2017-04-14T00:48:05.769Z,1008.96
2017-04-14T00:49:05.743Z,1008.93
2017-04-14T00:50:05.724Z,1008.95
2017-04-14T00:51:05.702Z,1008.92
2017-04-14T00:52:05.682Z,1008.93
2017-04-14T00:53:05.657Z,1008.89
2017-04-14T00:54:05.637Z,1008.92
2017-04-14T00:55:05.616Z,1008.88
2017-04-14T00:56:05.592Z,1008.92
2017-04-14T00:57:05.570Z,1008.92
2017-04-14T00:58:05.546Z,1008.92
2017-04-14T00:59:05.537Z,1008.93
2017-04-14T01:00:05.500Z,1008.93
2017-04-14T01:01:05.482Z,1008.91
2017-04-14T01:02:05.459Z,1008.91
2017-04-14T01:03:05.433Z,1008.92
2017-04-14T01:04:05.417Z,1008.92
2017-04-14T01:05:05.394Z,1008.91
2017-04-14T01:06:05.383Z,1008.89
2017-04-14T01:07:05.356Z,1008.9
2017-04-14T01:08:05.324Z,1008.93
2017-04-14T01:09:05.310Z,1008.93
2017-04-14T01:10:05.281Z,1008.92
2017-04-14T01:11:05.261Z,1008.92
2017-04-14T01:12:05.235Z,1008.91
2017-04-14T01:13:05.216Z,1008.91
2017-04-14T01:14:05.202Z,1008.95
2017-04-14T01:15:05.173Z,1008.93
2017-04-14T01:16:05.150Z,1008.92
2017-04-14T01:17:05.133Z,1008.89
2017-04-14T01:18:05.108Z,1008.9
2017-04-14T01:19:05.081Z,1008.89
2017-04-14T01:20:05.063Z,1008.87
2017-04-14T01:21:05.040Z,1008.86
2017-04-14T01:22:05.024Z,1008.84
2017-04-14T01:23:04.999Z,1008.84
2017-04-14T01:24:04.970Z,1008.86
2017-04-14T01:25:04.952Z,1008.87
2017-04-14T01:26:04.929Z,1008.84
2017-04-14T01:27:04.910Z,1008.81
2017-04-14T01:28:04.883Z,1008.83
2017-04-14T01:29:04.864Z,1008.81
2017-04-14T01:30:04.843Z,1008.79
2017-04-14T01:31:04.821Z,1008.77
2017-04-14T01:32:04.794Z,1008.77
2017-04-14T01:33:04.771Z,1008.79
2017-04-14T01:34:04.750Z,1008.78
2017-04-14T01:35:04.731Z,1008.77
2017-04-14T01:36:04.705Z,1008.76
2017-04-14T01:37:04.679Z,1008.74
2017-04-14T01:38:04.660Z,1008.79
2017-04-14T01:39:04.639Z,1008.79
2017-04-14T01:40:04.612Z,1008.82
2017-04-14T01:41:04.591Z,1008.8
2017-04-14T01:42:04.572Z,1008.83
2017-04-14T01:43:04.548Z,1008.83
2017-04-14T01:44:04.528Z,1008.83
2017-04-14T01:45:04.502Z,1008.86
2017-04-14T01:46:04.481Z,1008.84
2017-04-14T01:47:04.456Z,1008.83
2017-04-14T01:48:04.432Z,1008.86
2017-04-14T01:49:04.412Z,1008.86
2017-04-14T01:50:04.390Z,1008.82
2017-04-14T01:51:04.370Z,1008.85
2017-04-14T01:52:04.341Z,1008.85
2017-04-14T01:53:04.320Z,1008.84
2017-04-14T01:54:04.296Z,1008.84
2017-04-14T01:55:04.271Z,1008.84
2017-04-14T01:56:04.249Z,1008.86
2017-04-14T01:57:04.230Z,1008.81
2017-04-14T01:58:04.207Z,1008.83
2017-04-14T01:59:04.187Z,1008.79
2017-04-14T02:00:04.159Z,1008.82
2017-04-14T02:01:04.140Z,1008.77
2017-04-14T02:02:04.122Z,1008.79
2017-04-14T02:03:04.090Z,1008.8
2017-04-14T02:04:04.074Z,1008.81
2017-04-14T02:05:04.051Z,1008.84
2017-04-14T02:06:04.073Z,1008.82
2017-04-14T02:07:04.000Z,1008.8
2017-04-14T02:08:03.983Z,1008.8
2017-04-14T02:09:03.962Z,1008.8
2017-04-14T02:10:03.941Z,1008.77
2017-04-14T02:11:03.913Z,1008.8
2017-04-14T02:12:03.941Z,1008.81
2017-04-14T02:13:03.864Z,1008.77
2017-04-14T02:14:03.841Z,1008.77
2017-04-14T02:15:03.822Z,1008.79
2017-04-14T02:16:03.803Z,1008.77
2017-04-14T02:17:03.781Z,1008.74
2017-04-14T02:18:03.800Z,1008.74
2017-04-14T02:19:03.727Z,1008.75
2017-04-14T02:20:03.803Z,1008.74
2017-04-14T02:21:03.680Z,1008.75
2017-04-14T02:22:03.660Z,1008.71
2017-04-14T02:23:03.640Z,1008.71
2017-04-14T02:24:03.722Z,1008.69
2017-04-14T02:25:03.589Z,1008.69
2017-04-14T02:26:03.621Z,1008.7
2017-04-14T02:27:03.548Z,1008.69
2017-04-14T02:28:03.576Z,1008.71
2017-04-14T02:29:03.506Z,1008.7
2017-04-14T02:30:03.480Z,1008.69
2017-04-14T02:31:03.455Z,1008.69
2017-04-14T02:32:03.431Z,1008.72
2017-04-14T02:33:03.421Z,1008.7
2017-04-14T02:34:03.391Z,1008.72
2017-04-14T02:35:03.361Z,1008.71
2017-04-14T02:36:03.437Z,1008.73
2017-04-14T02:37:03.318Z,1008.72
2017-04-14T02:38:03.296Z,1008.73
2017-04-14T02:39:03.270Z,1008.74
2017-04-14T02:40:03.251Z,1008.71
2017-04-14T02:41:03.232Z,1008.71
2017-04-14T02:42:03.243Z,1008.72
2017-04-14T02:43:03.182Z,1008.68
2017-04-14T02:44:03.159Z,1008.73
2017-04-14T02:45:03.142Z,1008.73
2017-04-14T02:46:03.110Z,1008.74
2017-04-14T02:47:03.089Z,1008.73
2017-04-14T02:48:03.064Z,1008.73
2017-04-14T02:49:03.041Z,1008.72
2017-04-14T02:50:03.019Z,1008.72
2017-04-14T02:51:03.000Z,1008.79
2017-04-14T02:52:02.971Z,1008.77
2017-04-14T02:53:02.953Z,1008.75
2017-04-14T02:54:02.923Z,1008.75
2017-04-14T02:55:02.900Z,1008.74
2017-04-14T02:56:02.882Z,1008.8
2017-04-14T02:57:02.864Z,1008.76
2017-04-14T02:58:02.838Z,1008.8
2017-04-14T02:59:02.813Z,1008.78
2017-04-14T03:00:02.789Z,1008.77
2017-04-14T03:01:02.772Z,1008.81
2017-04-14T03:02:02.744Z,1008.82
2017-04-14T03:03:02.721Z,1008.83
2017-04-14T03:04:02.703Z,1008.82
2017-04-14T03:05:02.672Z,1008.83
2017-04-14T03:06:02.648Z,1008.79
2017-04-14T03:07:02.631Z,1008.82
2017-04-14T03:08:02.604Z,1008.81
2017-04-14T03:09:02.579Z,1008.82
2017-04-14T03:10:02.559Z,1008.84
2017-04-14T03:11:02.543Z,1008.83
2017-04-14T03:12:02.512Z,1008.85
2017-04-14T03:13:02.489Z,1008.84
2017-04-14T03:14:02.471Z,1008.85
2017-04-14T03:15:02.444Z,1008.86
2017-04-14T03:16:02.422Z,1008.84
2017-04-14T03:17:02.402Z,1008.86
2017-04-14T03:18:02.374Z,1008.87
2017-04-14T03:19:02.349Z,1008.88
2017-04-14T03:20:02.331Z,1008.9
2017-04-14T03:21:02.302Z,1008.9
2017-04-14T03:22:02.282Z,1008.87
2017-04-14T03:23:02.260Z,1008.87
2017-04-14T03:24:02.233Z,1008.84
2017-04-14T03:25:02.210Z,1008.86
2017-04-14T03:26:02.193Z,1008.81
2017-04-14T03:27:02.165Z,1008.81
2017-04-14T03:28:02.143Z,1008.83
2017-04-14T03:29:02.116Z,1008.79
2017-04-14T03:30:02.093Z,1008.79
2017-04-14T03:31:02.073Z,1008.82
2017-04-14T03:32:02.052Z,1008.79
2017-04-14T03:33:02.031Z,1008.82
2017-04-14T03:34:02.001Z,1008.81
2017-04-14T03:35:01.979Z,1008.81
2017-04-14T03:36:01.957Z,1008.78
2017-04-14T03:37:01.933Z,1008.79
2017-04-14T03:38:01.913Z,1008.78
2017-04-14T03:39:01.893Z,1008.79
2017-04-14T03:40:01.861Z,1008.77
2017-04-14T03:41:01.841Z,1008.76
2017-04-14T03:42:01.817Z,1008.74
2017-04-14T03:43:01.802Z,1008.77
2017-04-14T03:44:01.772Z,1008.77
2017-04-14T03:45:01.752Z,1008.74
2017-04-14T03:46:01.722Z,1008.74
2017-04-14T03:47:01.702Z,1008.75
2017-04-14T03:48:01.683Z,1008.77
2017-04-14T03:49:01.656Z,1008.75
2017-04-14T03:50:01.635Z,1008.74
2017-04-14T03:51:01.607Z,1008.71
2017-04-14T03:52:01.587Z,1008.7
2017-04-14T03:53:01.563Z,1008.74
2017-04-14T03:54:01.543Z,1008.76
2017-04-14T03:55:01.517Z,1008.8
2017-04-14T03:56:01.493Z,1008.79
2017-04-14T03:57:01.469Z,1008.81
2017-04-14T03:58:01.452Z,1008.79
2017-04-14T03:59:01.422Z,1008.81
2017-04-14T04:00:01.415Z,1008.75
2017-04-14T04:01:01.387Z,1008.76
2017-04-14T04:02:01.357Z,1008.74
2017-04-14T04:03:01.333Z,1008.78
2017-04-14T04:04:01.309Z,1008.77
2017-04-14T04:05:01.284Z,1008.82
2017-04-14T04:06:01.260Z,1008.82
2017-04-14T04:07:01.236Z,1008.83
2017-04-14T04:08:01.216Z,1008.83
2017-04-14T04:09:01.189Z,1008.8
2017-04-14T04:10:01.168Z,1008.78
2017-04-14T04:11:01.147Z,1008.79
2017-04-14T04:12:01.122Z,1008.76
2017-04-14T04:13:01.098Z,1008.79
2017-04-14T04:14:01.072Z,1008.79
2017-04-14T04:15:01.052Z,1008.84
2017-04-14T04:16:01.029Z,1008.82
2017-04-14T04:17:01.011Z,1008.89
2017-04-14T04:18:00.983Z,1008.88
2017-04-14T04:19:00.960Z,1008.87
2017-04-14T04:20:00.934Z,1008.87
2017-04-14T04:21:00.912Z,1008.85
2017-04-14T04:22:00.893Z,1008.83
2017-04-14T04:23:00.863Z,1008.8
2017-04-14T04:24:00.843Z,1008.81
2017-04-14T04:25:00.816Z,1008.84
2017-04-14T04:26:00.795Z,1008.79
2017-04-14T04:27:00.771Z,1008.84
2017-04-14T04:28:00.749Z,1008.86
2017-04-14T04:29:00.723Z,1008.86
2017-04-14T04:30:00.704Z,1008.85
2017-04-14T04:31:00.678Z,1008.86
2017-04-14T04:32:00.654Z,1008.89
2017-04-14T04:33:00.628Z,1008.82
2017-04-14T04:34:00.605Z,1008.83
2017-04-14T04:35:00.580Z,1008.82
2017-04-14T04:36:00.563Z,1008.84
2017-04-14T04:37:00.536Z,1008.84
2017-04-14T04:38:00.514Z,1008.89
2017-04-14T04:39:00.487Z,1008.88
2017-04-14T04:40:00.473Z,1008.91
2017-04-14T04:41:00.443Z,1008.89
2017-04-14T04:42:00.418Z,1008.93
2017-04-14T04:43:00.393Z,1008.91
2017-04-14T04:44:00.374Z,1008.91
2017-04-14T04:45:00.345Z,1008.95
2017-04-14T04:46:00.323Z,1008.93
2017-04-14T04:47:00.300Z,1008.91
2017-04-14T04:48:00.276Z,1008.95
2017-04-14T04:49:00.252Z,1008.99
2017-04-14T04:50:00.235Z,1008.98
2017-04-14T04:51:00.209Z,1009.02
2017-04-14T04:52:00.183Z,1009
2017-04-14T04:53:00.159Z,1009.05
2017-04-14T04:54:00.135Z,1009.01
2017-04-14T04:55:00.114Z,1009.02
2017-04-14T04:56:00.095Z,1009.02
2017-04-14T04:57:00.071Z,1009
2017-04-14T04:58:00.043Z,1009.01
2017-04-14T04:59:00.022Z,1009.01
2017-04-14T05:00:00.000Z,1009.02
2017-04-14T05:00:59.973Z,1009.04
2017-04-14T05:01:59.953Z,1008.99
2017-04-14T05:02:59.923Z,1008.99
2017-04-14T05:03:59.902Z,1008.96
2017-04-14T05:04:59.880Z,1008.96
2017-04-14T05:05:59.858Z,1008.97
2017-04-14T05:06:59.831Z,1008.98
2017-04-14T05:07:59.813Z,1008.99
2017-04-14T05:08:59.786Z,1009.05
2017-04-14T05:09:59.764Z,1009.02
2017-04-14T05:10:59.744Z,1009.04
2017-04-14T05:11:59.713Z,1009.03
2017-04-14T05:12:59.693Z,1009.05
2017-04-14T05:13:59.672Z,1009.09
2017-04-14T05:14:59.646Z,1009.04
2017-04-14T05:15:59.618Z,1009.08
2017-04-14T05:16:59.603Z,1009.06
2017-04-14T05:17:59.572Z,1009.09
2017-04-14T05:18:59.550Z,1009.06
2017-04-14T05:19:59.524Z,1009.09
2017-04-14T05:20:59.504Z,1009.06
2017-04-14T05:21:59.479Z,1009.06
2017-04-14T05:22:59.457Z,1009.06
2017-04-14T05:23:59.433Z,1009.08
2017-04-14T05:24:59.415Z,1009.07
2017-04-14T05:25:59.387Z,1009.07
2017-04-14T05:26:59.362Z,1009.06
2017-04-14T05:27:59.344Z,1009.08
2017-04-14T05:28:59.323Z,1009.06
2017-04-14T05:29:59.351Z,1009.08
2017-04-14T05:30:59.267Z,1009.12
2017-04-14T05:31:59.246Z,1009.11
2017-04-14T05:32:59.224Z,1009.15
2017-04-14T05:33:59.200Z,1009.1
2017-04-14T05:34:59.177Z,1009.11
2017-04-14T05:35:59.166Z,1009.13
2017-04-14T05:36:59.132Z,1009.07
2017-04-14T05:37:59.114Z,1009.13
2017-04-14T05:38:59.086Z,1009.09
2017-04-14T05:39:59.064Z,1009.11
2017-04-14T05:40:59.040Z,1009.17
2017-04-14T05:41:59.014Z,1009.15
2017-04-14T05:42:58.993Z,1009.13
2017-04-14T05:43:58.972Z,1009.15
2017-04-14T05:44:58.944Z,1009.14
2017-04-14T05:45:58.920Z,1009.13
2017-04-14T05:46:58.902Z,1009.14
2017-04-14T05:47:58.881Z,1009.16
2017-04-14T05:48:58.849Z,1009.15
2017-04-14T05:49:58.836Z,1009.11
2017-04-14T05:50:58.805Z,1009.18
2017-04-14T05:51:58.780Z,1009.23
2017-04-14T05:52:58.758Z,1009.18
2017-04-14T05:53:58.737Z,1009.22
2017-04-14T05:54:58.713Z,1009.22
2017-04-14T05:55:58.689Z,1009.2
2017-04-14T05:56:58.676Z,1009.22
2017-04-14T05:57:58.645Z,1009.23
2017-04-14T05:58:58.622Z,1009.26
2017-04-14T05:59:58.599Z,1009.23
2017-04-14T06:00:58.576Z,1009.24
2017-04-14T06:01:58.551Z,1009.26
2017-04-14T06:02:58.531Z,1009.22
2017-04-14T06:03:58.508Z,1009.23
2017-04-14T06:04:58.483Z,1009.21
2017-04-14T06:05:58.463Z,1009.26
2017-04-14T06:06:58.438Z,1009.29
2017-04-14T06:07:58.433Z,1009.31
2017-04-14T06:08:58.392Z,1009.29
2017-04-14T06:09:58.369Z,1009.32
2017-04-14T06:10:58.346Z,1009.3
2017-04-14T06:11:58.379Z,1009.31
2017-04-14T06:12:58.303Z,1009.32
2017-04-14T06:13:58.297Z,1009.3
2017-04-14T06:14:58.303Z,1009.31
2017-04-14T06:15:58.284Z,1009.29
2017-04-14T06:16:58.212Z,1009.33
2017-04-14T06:17:58.293Z,1009.32
2017-04-14T06:18:58.170Z,1009.32
2017-04-14T06:19:58.244Z,1009.3
2017-04-14T06:20:58.122Z,1009.27
2017-04-14T06:21:58.112Z,1009.33
2017-04-14T06:22:58.076Z,1009.3
2017-04-14T06:23:58.172Z,1009.32
2017-04-14T06:24:58.035Z,1009.27
2017-04-14T06:25:58.115Z,1009.34
2017-04-14T06:26:57.987Z,1009.29
2017-04-14T06:27:58.053Z,1009.29
2017-04-14T06:28:57.943Z,1009.33
2017-04-14T06:29:57.923Z,1009.31
2017-04-14T06:30:57.897Z,1009.31
2017-04-14T06:31:57.879Z,1009.3
2017-04-14T06:32:57.864Z,1009.32
2017-04-14T06:33:57.833Z,1009.29
2017-04-14T06:34:57.815Z,1009.35
2017-04-14T06:35:57.787Z,1009.36
2017-04-14T06:36:57.775Z,1009.37
2017-04-14T06:37:57.743Z,1009.38
2017-04-14T06:38:57.728Z,1009.36
2017-04-14T06:39:57.707Z,1009.36
2017-04-14T06:40:57.684Z,1009.4
2017-04-14T06:41:57.690Z,1009.41
2017-04-14T06:42:57.635Z,1009.45
2017-04-14T06:43:57.611Z,1009.37
2017-04-14T06:44:57.592Z,1009.38
2017-04-14T06:45:57.573Z,1009.43
2017-04-14T06:46:57.546Z,1009.52
2017-04-14T06:47:57.536Z,1009.55
2017-04-14T06:48:57.501Z,1009.7
2017-04-14T06:49:57.484Z,1010.06
2017-04-14T06:50:57.459Z,1010.58
2017-04-14T06:51:57.441Z,1010.49
2017-04-14T06:52:57.423Z,1010.09
2017-04-14T06:53:57.403Z,1009.76
2017-04-14T06:54:57.382Z,1009.63
2017-04-14T06:55:57.362Z,1009.58
2017-04-14T06:56:57.360Z,1009.49
2017-04-14T06:57:57.333Z,1009.58
2017-04-14T06:58:57.309Z,1009.65
2017-04-14T06:59:57.299Z,1009.64
2017-04-14T07:00:57.277Z,1009.57
2017-04-14T07:01:57.263Z,1009.59
2017-04-14T07:02:57.247Z,1009.55
2017-04-14T07:03:57.222Z,1009.59
2017-04-14T07:04:57.213Z,1009.55
2017-04-14T07:05:57.295Z,1009.58
2017-04-14T07:06:57.175Z,1009.58
2017-04-14T07:07:57.163Z,1009.57
2017-04-14T07:08:57.151Z,1009.58
2017-04-14T07:09:57.132Z,1009.57
2017-04-14T07:10:57.124Z,1009.49
2017-04-14T07:11:57.106Z,1009.39
2017-04-14T07:12:57.088Z,1009.36
2017-04-14T07:13:57.074Z,1009.37
2017-04-14T07:14:57.065Z,1009.3
2017-04-14T07:15:57.044Z,1009.35
2017-04-14T07:16:57.029Z,1009.34
2017-04-14T07:17:57.014Z,1009.33
2017-04-14T07:18:56.994Z,1009.31
2017-04-14T07:19:56.983Z,1009.33
2017-04-14T07:20:56.961Z,1009.34
2017-04-14T07:21:56.943Z,1009.28
2017-04-14T07:22:56.922Z,1009.27
2017-04-14T07:23:56.912Z,1009.3
2017-04-14T07:24:56.892Z,1009.29
2017-04-14T07:25:56.885Z,1009.26
2017-04-14T07:26:56.853Z,1009.25
2017-04-14T07:27:56.832Z,1009.24
2017-04-14T07:28:56.817Z,1009.21
2017-04-14T07:29:56.798Z,1009.25
2017-04-14T07:30:56.780Z,1009.25
2017-04-14T07:31:56.756Z,1009.23
2017-04-14T07:32:56.744Z,1009.2
2017-04-14T07:33:56.723Z,1009.2
2017-04-14T07:34:56.698Z,1009.19
2017-04-14T07:35:56.781Z,1009.19
2017-04-14T07:36:56.664Z,1009.18
2017-04-14T07:37:56.640Z,1009.17
2017-04-14T07:38:56.623Z,1009.2
2017-04-14T07:39:56.603Z,1009.21
2017-04-14T07:40:56.682Z,1009.21
2017-04-14T07:41:56.556Z,1009.19
2017-04-14T07:42:56.543Z,1009.23
2017-04-14T07:43:56.561Z,1009.23
2017-04-14T07:44:56.502Z,1009.28
2017-04-14T07:45:56.635Z,1009.23
2017-04-14T07:46:56.462Z,1009.29
2017-04-14T07:47:56.541Z,1009.23
2017-04-14T07:48:56.416Z,1009.29
2017-04-14T07:49:56.398Z,1009.29
2017-04-14T07:50:56.379Z,1009.32
2017-04-14T07:51:56.363Z,1009.31
2017-04-14T07:52:56.341Z,1009.35
2017-04-14T07:53:56.317Z,1009.32
2017-04-14T07:54:56.292Z,1009.35
2017-04-14T07:55:56.323Z,1009.36
2017-04-14T07:56:56.254Z,1009.34
2017-04-14T07:57:56.293Z,1009.35
2017-04-14T07:58:56.212Z,1009.36
2017-04-14T07:59:56.192Z,1009.37
2017-04-14T08:00:56.183Z,1009.34
2017-04-14T08:01:56.160Z,1009.39
2017-04-14T08:02:56.144Z,1009.38
2017-04-14T08:03:56.115Z,1009.37
2017-04-14T08:04:56.089Z,1009.37
2017-04-14T08:05:56.225Z,1009.37
2017-04-14T08:06:56.045Z,1009.38
2017-04-14T08:07:56.030Z,1009.35
2017-04-14T08:08:56.004Z,1009.37
2017-04-14T08:09:56.045Z,1009.36
2017-04-14T08:10:55.960Z,1009.38
2017-04-14T08:11:55.948Z,1009.37
2017-04-14T08:12:55.919Z,1009.38
2017-04-14T08:13:55.994Z,1009.39
2017-04-14T08:14:55.877Z,1009.36
2017-04-14T08:15:56.010Z,1009.36
2017-04-14T08:16:55.844Z,1009.41
2017-04-14T08:17:55.934Z,1009.37
2017-04-14T08:18:55.793Z,1009.4
2017-04-14T08:19:55.773Z,1009.43
2017-04-14T08:20:55.859Z,1009.41
2017-04-14T08:21:55.734Z,1009.44
2017-04-14T08:22:55.707Z,1009.43
2017-04-14T08:23:55.692Z,1009.47
2017-04-14T08:24:55.668Z,1009.37
2017-04-14T08:25:55.650Z,1009.4
2017-04-14T08:26:55.632Z,1009.44
2017-04-14T08:27:55.614Z,1009.38
2017-04-14T08:28:55.595Z,1009.42
2017-04-14T08:29:55.725Z,1009.41
2017-04-14T08:30:55.712Z,1009.47
2017-04-14T08:31:55.524Z,1009.43
2017-04-14T08:32:55.504Z,1009.43
2017-04-14T08:33:55.484Z,1009.43
2017-04-14T08:34:55.464Z,1009.45
2017-04-14T08:35:55.545Z,1009.43
2017-04-14T08:36:55.429Z,1009.43
2017-04-14T08:37:55.405Z,1009.43
2017-04-14T08:38:55.381Z,1009.44
2017-04-14T08:39:55.367Z,1009.4
2017-04-14T08:40:55.360Z,1009.38
2017-04-14T08:41:55.316Z,1009.38
2017-04-14T08:42:55.293Z,1009.42
2017-04-14T08:43:55.276Z,1009.38
2017-04-14T08:44:55.261Z,1009.41
2017-04-14T08:45:55.235Z,1009.44
2017-04-14T08:46:55.209Z,1009.4
2017-04-14T08:47:55.200Z,1009.4
2017-04-14T08:48:55.174Z,1009.38
2017-04-14T08:49:55.153Z,1009.37
2017-04-14T08:50:55.130Z,1009.37
2017-04-14T08:51:55.114Z,1009.41
2017-04-14T08:52:55.094Z,1009.38
2017-04-14T08:53:55.073Z,1009.37
2017-04-14T08:54:55.051Z,1009.41
2017-04-14T08:55:55.031Z,1009.38
2017-04-14T08:56:55.011Z,1009.38
2017-04-14T08:57:54.983Z,1009.42
2017-04-14T08:58:54.963Z,1009.41
2017-04-14T08:59:54.944Z,1009.44
2017-04-14T09:00:54.934Z,1009.42
2017-04-14T09:01:54.904Z,1009.38
2017-04-14T09:02:54.883Z,1009.46
2017-04-14T09:03:54.863Z,1009.45
2017-04-14T09:04:54.843Z,1009.41
2017-04-14T09:05:54.818Z,1009.48
2017-04-14T09:06:54.800Z,1009.44
2017-04-14T09:07:54.815Z,1009.47
2017-04-14T09:08:54.763Z,1009.47
2017-04-14T09:09:54.736Z,1009.47
2017-04-14T09:10:54.723Z,1009.47
2017-04-14T09:11:54.703Z,1009.48
2017-04-14T09:12:54.682Z,1009.49
2017-04-14T09:13:54.661Z,1009.54
2017-04-14T09:14:54.642Z,1009.5
2017-04-14T09:15:54.723Z,1009.51
2017-04-14T09:16:54.605Z,1009.46
2017-04-14T09:17:54.579Z,1009.46
2017-04-14T09:18:54.574Z,1009.44
2017-04-14T09:19:54.535Z,1009.45
2017-04-14T09:20:54.512Z,1009.45
2017-04-14T09:21:54.499Z,1009.43
2017-04-14T09:22:54.475Z,1009.45
2017-04-14T09:23:54.453Z,1009.45
2017-04-14T09:24:54.434Z,1009.49
2017-04-14T09:25:54.414Z,1009.54
2017-04-14T09:26:54.393Z,1009.45
2017-04-14T09:27:54.373Z,1009.47
2017-04-14T09:28:54.354Z,1009.5
2017-04-14T09:29:54.331Z,1009.48
2017-04-14T09:30:54.321Z,1009.53
2017-04-14T09:31:54.294Z,1009.58
2017-04-14T09:32:54.273Z,1009.5
2017-04-14T09:33:54.253Z,1009.53
2017-04-14T09:34:54.230Z,1009.52
2017-04-14T09:35:54.462Z,1009.56
2017-04-14T09:36:54.195Z,1009.58
2017-04-14T09:37:54.168Z,1009.53
2017-04-14T09:38:54.155Z,1009.56
2017-04-14T09:39:54.126Z,1009.56
2017-04-14T09:40:54.107Z,1009.57
2017-04-14T09:41:54.088Z,1009.55
2017-04-14T09:42:54.073Z,1009.57
2017-04-14T09:43:54.048Z,1009.59
2017-04-14T09:44:54.034Z,1009.6
2017-04-14T09:45:54.012Z,1009.61
2017-04-14T09:46:53.996Z,1009.56
2017-04-14T09:47:53.963Z,1009.62
2017-04-14T09:48:53.943Z,1009.6
2017-04-14T09:49:53.925Z,1009.59
2017-04-14T09:50:53.909Z,1009.59
2017-04-14T09:51:53.883Z,1009.58
2017-04-14T09:52:53.864Z,1009.58
2017-04-14T09:53:53.849Z,1009.61
2017-04-14T09:54:53.820Z,1009.57
2017-04-14T09:55:53.804Z,1009.66
2017-04-14T09:56:53.784Z,1009.57
2017-04-14T09:57:53.761Z,1009.6
2017-04-14T09:58:53.742Z,1009.58
2017-04-14T09:59:53.725Z,1009.54
2017-04-14T10:00:53.703Z,1009.59
2017-04-14T10:01:53.684Z,1009.61
2017-04-14T10:02:53.660Z,1009.55
2017-04-14T10:03:53.657Z,1009.57
2017-04-14T10:04:53.614Z,1009.56
2017-04-14T10:05:53.602Z,1009.56
2017-04-14T10:06:53.583Z,1009.58
2017-04-14T10:07:53.563Z,1009.6
2017-04-14T10:08:53.532Z,1009.62
2017-04-14T10:09:53.520Z,1009.57
2017-04-14T10:10:53.495Z,1009.59
2017-04-14T10:11:53.473Z,1009.59
2017-04-14T10:12:53.465Z,1009.58
2017-04-14T10:13:53.434Z,1009.55
2017-04-14T10:14:53.412Z,1009.54
2017-04-14T10:15:53.393Z,1009.57
2017-04-14T10:16:53.375Z,1009.56
2017-04-14T10:17:53.353Z,1009.52
2017-04-14T10:18:53.333Z,1009.55
2017-04-14T10:19:53.312Z,1009.61
2017-04-14T10:20:53.295Z,1009.64
2017-04-14T10:21:53.275Z,1009.59
2017-04-14T10:22:53.253Z,1009.61
2017-04-14T10:23:53.244Z,1009.67
2017-04-14T10:24:53.214Z,1009.59
2017-04-14T10:25:53.189Z,1009.56
2017-04-14T10:26:53.170Z,1009.56
2017-04-14T10:27:53.153Z,1009.56
2017-04-14T10:28:53.136Z,1009.57
2017-04-14T10:29:53.167Z,1009.58
2017-04-14T10:30:53.091Z,1009.55
2017-04-14T10:31:53.076Z,1009.55
2017-04-14T10:32:53.056Z,1009.55
2017-04-14T10:33:53.023Z,1009.54
2017-04-14T10:34:53.014Z,1009.56
2017-04-14T10:35:52.992Z,1009.56
2017-04-14T10:36:52.976Z,1009.52
2017-04-14T10:37:52.945Z,1009.59
2017-04-14T10:38:52.927Z,1009.6
2017-04-14T10:39:52.905Z,1009.6
2017-04-14T10:40:52.884Z,1009.56
2017-04-14T10:41:52.863Z,1009.55
2017-04-14T10:42:52.849Z,1009.61
2017-04-14T10:43:52.825Z,1009.57
2017-04-14T10:44:52.803Z,1009.59
2017-04-14T10:45:52.777Z,1009.59
2017-04-14T10:46:52.763Z,1009.57
2017-04-14T10:47:52.753Z,1009.6
2017-04-14T10:48:52.745Z,1009.54
2017-04-14T10:49:52.700Z,1009.58
2017-04-14T10:50:52.685Z,1009.52
2017-04-14T10:51:52.662Z,1009.58
2017-04-14T10:52:52.641Z,1009.59
2017-04-14T10:53:52.631Z,1009.55
2017-04-14T10:54:52.607Z,1009.64
2017-04-14T10:55:52.584Z,1009.65
2017-04-14T10:56:52.572Z,1009.66
2017-04-14T10:57:52.543Z,1009.63
2017-04-14T10:58:52.524Z,1009.64
2017-04-14T10:59:52.504Z,1009.66
2017-04-14T11:00:52.478Z,1009.64
2017-04-14T11:01:52.463Z,1009.62
2017-04-14T11:02:52.444Z,1009.67
2017-04-14T11:03:52.423Z,1009.67
2017-04-14T11:04:52.399Z,1009.62
2017-04-14T11:05:52.378Z,1009.58
2017-04-14T11:06:52.364Z,1009.62
2017-04-14T11:07:52.338Z,1009.6
2017-04-14T11:08:52.324Z,1009.61
2017-04-14T11:09:52.301Z,1009.6
2017-04-14T11:10:52.286Z,1009.63
2017-04-14T11:11:52.264Z,1009.59
2017-04-14T11:12:52.241Z,1009.6
2017-04-14T11:13:52.231Z,1009.57
2017-04-14T11:14:52.207Z,1009.57
2017-04-14T11:15:52.186Z,1009.54
2017-04-14T11:16:52.170Z,1009.59
2017-04-14T11:17:52.148Z,1009.58
2017-04-14T11:18:52.124Z,1009.56
2017-04-14T11:19:52.101Z,1009.56
2017-04-14T11:20:52.083Z,1009.56
2017-04-14T11:21:52.066Z,1009.52
2017-04-14T11:22:52.044Z,1009.55
2017-04-14T11:23:52.025Z,1009.52
2017-04-14T11:24:52.005Z,1009.48
2017-04-14T11:25:51.989Z,1009.48
2017-04-14T11:26:51.973Z,1009.51
2017-04-14T11:27:51.955Z,1009.49
2017-04-14T11:28:51.925Z,1009.49
2017-04-14T11:29:51.915Z,1009.5
2017-04-14T11:30:51.888Z,1009.53
2017-04-14T11:31:51.876Z,1009.51
2017-04-14T11:32:51.856Z,1009.51
2017-04-14T11:33:51.833Z,1009.55
2017-04-14T11:34:51.816Z,1009.54
2017-04-14T11:35:51.794Z,1009.47
2017-04-14T11:36:51.768Z,1009.49
2017-04-14T11:37:51.755Z,1009.46
2017-04-14T11:38:51.734Z,1009.48
2017-04-14T11:39:51.716Z,1009.46
2017-04-14T11:40:51.699Z,1009.5
2017-04-14T11:41:51.676Z,1009.5
2017-04-14T11:42:51.655Z,1009.48
2017-04-14T11:43:51.635Z,1009.49
2017-04-14T11:44:51.614Z,1009.48
2017-04-14T11:45:51.596Z,1009.48
2017-04-14T11:46:51.577Z,1009.54
2017-04-14T11:47:51.565Z,1009.5
2017-04-14T11:48:51.543Z,1009.53
2017-04-14T11:49:51.525Z,1009.54
2017-04-14T11:50:51.499Z,1009.59
2017-04-14T11:51:51.483Z,1009.6
2017-04-14T11:52:51.460Z,1009.58
2017-04-14T11:53:51.445Z,1009.6
2017-04-14T11:54:51.418Z,1009.54
2017-04-14T11:55:51.403Z,1009.51
2017-04-14T11:56:51.386Z,1009.59
2017-04-14T11:57:51.366Z,1009.53
2017-04-14T11:58:51.346Z,1009.52
2017-04-14T11:59:51.330Z,1009.55
2017-04-14T12:00:51.306Z,1009.52
2017-04-14T12:01:51.285Z,1009.59
2017-04-14T12:02:51.265Z,1009.52
2017-04-14T12:03:51.253Z,1009.5
2017-04-14T12:04:51.233Z,1009.46
2017-04-14T12:05:51.206Z,1009.48
2017-04-14T12:06:51.193Z,1009.48
2017-04-14T12:07:51.180Z,1009.49